Time;durP1;ratioP1;P1;durP2;ratioP2;P2;SDS_P1;SDS_P2;PMS_P1;PMS_P2;Temp;Humidity;BMP_temperature;BMP_pressure;BME280_temperature;BME280_humidity;BME280_pressure;Samples;Min_cycle;Max_cycle;Signal;HPM_P1;HPM_P2
2021/03/26 00:02:25;;;;;;;111.77;48.02;;;;;;;-1.94;71.22;100770.73;1742833;81;21126;-43
2021/03/26 00:04:54;;;;;;;103.30;47.48;;;;;;;-1.89;70.34;100769.34;1783403;79;22023;-39
2021/03/26 00:07:25;;;;;;;108.17;47.35;;;;;;;-2.05;69.67;100773.19;1770204;78;21496;-39
2021/03/26 00:09:59;;;;;;;110.75;47.73;;;;;;;-2.32;69.95;100768.61;1785028;79;22034;-40
2021/03/26 00:12:28;;;;;;;121.53;51.95;;;;;;;-2.56;70.59;100772.15;1772762;78;21121;-40
2021/03/26 00:14:58;;;;;;;113.55;46.18;;;;;;;-2.72;71.16;100768.17;1774022;78;28201;-39
2021/03/26 00:17:26;;;;;;;104.85;45.33;;;;;;;-2.82;71.55;100768.81;1775669;78;21401;-39
2021/03/26 00:19:55;;;;;;;98.42;42.80;;;;;;;-2.88;71.83;100765.89;1775019;78;21146;-39
2021/03/26 00:22:26;;;;;;;100.35;42.55;;;;;;;-2.90;72.04;100770.25;1773355;80;21790;-39
2021/03/26 00:24:55;;;;;;;90.35;39.98;;;;;;;-2.90;72.09;100770.70;1797821;78;21588;-40
2021/03/26 00:27:24;;;;;;;88.97;39.50;;;;;;;-2.90;72.19;100778.48;1785524;78;21101;-39
2021/03/26 00:29:54;;;;;;;92.75;40.83;;;;;;;-2.92;72.25;100778.49;1787565;79;21126;-40
2021/03/26 00:32:22;;;;;;;111.68;47.20;;;;;;;-2.96;72.23;100784.62;1800328;78;21136;-40
2021/03/26 00:34:54;;;;;;;107.90;48.08;;;;;;;-2.96;72.39;100779.44;1790000;79;21346;-39
2021/03/26 00:37:26;;;;;;;111.08;49.35;;;;;;;-2.83;72.38;100775.72;1780054;79;29419;-40
2021/03/26 00:39:55;;;;;;;116.95;51.60;;;;;;;-2.70;71.72;100784.54;1763305;79;21401;-40
2021/03/26 00:42:25;;;;;;;120.45;51.88;;;;;;;-2.62;71.42;100777.46;1752835;79;21126;-40
2021/03/26 00:44:55;;;;;;;125.42;53.90;;;;;;;-2.53;71.25;100776.40;1804836;78;21094;-40
2021/03/26 00:47:26;;;;;;;112.72;49.58;;;;;;;-2.45;71.18;100774.95;1752703;80;22582;-40
2021/03/26 00:49:56;;;;;;;113.45;49.98;;;;;;;-2.38;71.06;100777.82;1786951;79;21974;-40
2021/03/26 00:52:25;;;;;;;118.53;50.35;;;;;;;-2.33;70.63;100770.80;1751367;79;21427;-40
2021/03/26 00:54:55;;;;;;;107.90;48.15;;;;;;;-2.32;70.43;100769.91;1806505;78;21852;-40
2021/03/26 00:57:25;;;;;;;109.20;46.83;;;;;;;-2.40;70.15;100774.41;1805448;78;22026;-40
2021/03/26 00:59:55;;;;;;;90.00;41.05;;;;;;;-2.58;70.39;100779.10;1735658;80;21914;-39
2021/03/26 01:02:26;;;;;;;101.95;46.25;;;;;;;-2.72;70.82;100777.23;1791723;79;21369;-39
2021/03/26 01:04:55;;;;;;;82.95;40.25;;;;;;;-2.84;71.25;100775.77;1799806;79;21468;-40
2021/03/26 01:07:26;;;;;;;98.82;44.53;;;;;;;-2.98;71.87;100783.37;1763359;78;21117;-40
2021/03/26 01:09:55;;;;;;;111.37;44.45;;;;;;;-3.11;72.59;100785.78;1796873;78;21126;-40
2021/03/26 01:12:25;;;;;;;96.92;42.17;;;;;;;-3.25;72.95;100782.17;1763270;78;22703;-40
2021/03/26 01:14:55;;;;;;;91.35;40.60;;;;;;;-3.36;73.12;100791.41;1729183;81;21386;-40
2021/03/26 01:17:25;;;;;;;79.12;32.63;;;;;;;-3.41;73.43;100788.04;1788937;78;21153;-40
2021/03/26 01:19:57;;;;;;;85.90;39.13;;;;;;;-3.40;73.63;100789.75;1800518;78;21317;-40
2021/03/26 01:22:25;;;;;;;104.38;47.53;;;;;;;-3.41;73.78;100783.73;1785453;79;21099;-39
2021/03/26 01:24:56;;;;;;;99.13;45.70;;;;;;;-3.43;73.88;100795.84;1782622;79;21858;-39
2021/03/26 01:27:27;;;;;;;111.88;47.23;;;;;;;-3.30;73.85;100789.16;1763799;79;21141;-40
2021/03/26 01:29:56;;;;;;;114.12;47.98;;;;;;;-3.14;73.50;100784.54;1796083;79;21543;-39
2021/03/26 01:32:25;;;;;;;102.47;47.85;;;;;;;-2.98;73.24;100786.38;1782751;78;21125;-39
2021/03/26 01:34:55;;;;;;;103.78;46.77;;;;;;;-2.82;73.04;100786.95;1802869;78;21563;-39
2021/03/26 01:37:25;;;;;;;105.40;45.33;;;;;;;-2.66;72.82;100788.77;1798886;79;21979;-39
2021/03/26 01:39:55;;;;;;;94.00;42.65;;;;;;;-2.46;72.61;100793.98;1792288;79;21378;-39
2021/03/26 01:42:32;;;;;;;86.57;41.68;;;;;;;-2.33;72.10;100791.54;1755856;80;21168;-40
2021/03/26 01:45:04;;;;;;;78.15;37.67;;;;;;;-2.21;71.79;100789.56;1797260;78;21164;-40
2021/03/26 01:47:34;;;;;;;83.10;38.55;;;;;;;-2.28;71.14;100792.29;1739904;79;21113;-40
2021/03/26 01:50:07;;;;;;;88.58;39.42;;;;;;;-2.55;71.12;100792.42;1720908;81;22021;-39
2021/03/26 01:52:35;;;;;;;93.33;41.50;;;;;;;-2.77;71.66;100791.60;1753373;80;21148;-39
2021/03/26 01:55:07;;;;;;;86.50;40.48;;;;;;;-2.94;72.45;100792.38;1755062;80;21453;-40
2021/03/26 01:57:36;;;;;;;89.90;41.53;;;;;;;-3.08;72.92;100797.38;1800999;78;21088;-40
2021/03/26 02:00:15;;;;;;;90.57;40.35;;;;;;;-3.24;73.39;100796.81;1756091;80;21556;-40
2021/03/26 02:02:44;;;;;;;78.28;38.78;;;;;;;-3.33;74.25;100796.53;1710249;80;21474;-40
2021/03/26 02:05:29;;;;;;;89.40;39.80;;;;;;;-3.35;74.80;100796.16;1845284;74;29541;-39
2021/03/26 02:08:04;;;;;;;83.30;40.60;;;;;;;-3.46;75.22;100795.91;1801940;76;21212;-40
2021/03/26 02:10:34;;;;;;;96.87;44.33;;;;;;;-3.51;75.38;100799.02;1822628;76;22741;-39
2021/03/26 02:13:06;;;;;;;97.42;42.65;;;;;;;-3.51;75.42;100806.77;1821321;76;21018;-40
2021/03/26 02:15:39;;;;;;;92.60;41.98;;;;;;;-3.41;75.48;100799.69;1829607;76;21373;-40
2021/03/26 02:18:09;;;;;;;87.45;41.70;;;;;;;-3.23;75.14;100806.30;1811386;76;21537;-40
2021/03/26 02:20:42;;;;;;;86.47;40.85;;;;;;;-3.04;74.62;100800.74;1791260;77;21570;-40
2021/03/26 02:23:16;;;;;;;82.78;39.03;;;;;;;-2.88;74.24;100800.86;1776900;77;22581;-39
2021/03/26 02:25:58;;;;;;;87.20;41.25;;;;;;;-2.72;73.54;100801.86;1805212;77;20987;-39
2021/03/26 02:28:27;;;;;;;94.87;41.58;;;;;;;-2.60;72.87;100800.73;1764156;77;24841;-43
2021/03/26 02:30:58;;;;;;;92.10;42.30;;;;;;;-2.56;72.42;100807.14;1790999;77;21620;-40
2021/03/26 02:33:27;;;;;;;85.53;38.25;;;;;;;-2.50;71.94;100806.60;1802536;77;21104;-40
2021/03/26 02:36:17;;;;;;;84.70;39.40;;;;;;;-2.68;72.00;100805.67;1800362;77;21977;-40
2021/03/26 02:39:07;;;;;;;92.10;39.35;;;;;;;-2.97;73.08;100811.41;1839574;75;28940;-39
2021/03/26 02:41:40;;;;;;;82.33;39.95;;;;;;;-3.20;73.79;100817.89;1751982;78;21228;-39
2021/03/26 02:44:22;;;;;;;85.80;38.80;;;;;;;-3.31;74.73;100817.22;1749995;80;21365;-40
2021/03/26 02:47:12;;;;;;;85.33;41.50;;;;;;;-3.40;75.55;100818.22;1724548;80;21200;-40
2021/03/26 02:49:54;;;;;;;85.07;39.78;;;;;;;-3.44;76.09;100821.31;1771514;78;21637;-39
2021/03/26 02:52:41;;;;;;;82.20;35.48;;;;;;;-3.47;76.24;100820.08;1748730;80;21460;-39
2021/03/26 02:55:37;;;;;;;91.20;40.88;;;;;;;-3.46;76.23;100823.50;1730623;80;21517;-39
2021/03/26 02:58:17;;;;;;;89.03;39.53;;;;;;;-3.54;76.75;100826.23;1733216;80;21213;-40
2021/03/26 03:01:01;;;;;;;111.10;49.55;;;;;;;-3.59;77.37;100826.30;1736175;80;21163;-39
2021/03/26 03:03:29;;;;;;;104.27;49.00;;;;;;;-3.59;77.47;100827.59;1755096;80;21133;-39
2021/03/26 03:06:04;;;;;;;117.77;46.68;;;;;;;-3.52;77.49;100828.78;1742943;80;21162;-40
2021/03/26 03:08:52;;;;;;;92.60;42.85;;;;;;;-3.37;77.28;100830.27;1733318;80;21641;-40
2021/03/26 03:11:32;;;;;;;101.55;44.23;;;;;;;-3.19;76.80;100824.78;1749675;80;21274;-40
2021/03/26 03:14:19;;;;;;;97.20;44.93;;;;;;;-3.04;76.26;100816.28;1761949;78;21894;-40
2021/03/26 03:17:12;;;;;;;100.87;44.60;;;;;;;-2.91;75.44;100819.05;1739984;80;21100;-39
2021/03/26 03:19:59;;;;;;;88.65;40.55;;;;;;;-2.80;74.90;100820.59;1759378;78;21915;-39
2021/03/26 03:22:32;;;;;;;80.30;38.30;;;;;;;-2.68;74.44;100827.70;1733023;80;22050;-39
2021/03/26 03:25:16;;;;;;;77.58;37.78;;;;;;;-2.59;73.77;100823.18;1733237;80;21379;-39
2021/03/26 03:28:19;;;;;;;70.08;35.33;;;;;;;-2.71;73.06;100834.66;1769898;80;21383;-39
2021/03/26 03:31:09;;;;;;;77.58;37.13;;;;;;;-2.95;72.81;100835.54;1751435;78;22091;-40
2021/03/26 03:34:03;;;;;;;74.80;34.38;;;;;;;-3.18;73.36;100845.88;1759235;78;21108;-40
2021/03/26 03:36:58;;;;;;;75.90;37.58;;;;;;;-3.29;74.04;100847.37;1770902;78;21109;-39
2021/03/26 03:39:32;;;;;;;75.47;37.30;;;;;;;-3.39;74.57;100848.41;1746418;80;23256;-40
2021/03/26 03:42:19;;;;;;;75.08;33.25;;;;;;;-3.46;75.14;100855.86;1727044;80;21149;-40
2021/03/26 03:45:11;;;;;;;73.55;35.75;;;;;;;-3.53;75.63;100856.83;1759963;78;21649;-39
2021/03/26 03:47:59;;;;;;;66.07;33.53;;;;;;;-3.58;76.18;100853.03;1725461;80;21115;-39
2021/03/26 03:50:44;;;;;;;79.20;34.75;;;;;;;-3.59;76.61;100856.50;1736882;80;21097;-40
2021/03/26 03:53:24;;;;;;;86.00;34.10;;;;;;;-3.57;77.06;100850.86;1766660;78;21927;-40
2021/03/26 03:56:19;;;;;;;75.35;33.45;;;;;;;-3.56;77.23;100852.12;1752370;78;22002;-40
2021/03/26 03:59:04;;;;;;;78.78;37.75;;;;;;;-3.52;77.29;100849.48;1766637;78;21643;-39
2021/03/26 04:01:40;;;;;;;79.27;34.95;;;;;;;-3.50;77.32;100851.61;1769827;78;21499;-40
2021/03/26 04:04:28;;;;;;;67.27;32.65;;;;;;;-3.31;77.50;100852.17;1765987;78;21144;-40
2021/03/26 04:07:01;;;;;;;85.05;37.33;;;;;;;-2.96;78.12;100848.08;1752079;78;21875;-40
2021/03/26 04:09:36;;;;;;;80.35;37.60;;;;;;;-2.35;78.93;100854.24;1775452;78;21145;-39
2021/03/26 04:12:09;;;;;;;83.15;39.05;;;;;;;-1.79;78.56;100847.81;1727690;78;21128;-39
2021/03/26 04:15:27;;;;;;;73.50;35.23;;;;;;;-1.02;78.08;100854.58;1871869;75;22957;-40
2021/03/26 04:18:18;;;;;;;73.55;35.35;;;;;;;-0.47;77.77;100855.66;1812029;77;21192;-40
2021/03/26 04:21:17;;;;;;;68.70;32.73;;;;;;;0.24;76.66;100856.59;1839232;76;20962;-40
2021/03/26 04:24:21;;;;;;;60.90;29.05;;;;;;;0.87;72.60;100861.47;1778000;77;22794;-40
2021/03/26 04:27:16;;;;;;;58.63;29.40;;;;;;;0.95;71.20;100862.97;1746644;79;21191;-40
2021/03/26 04:30:23;;;;;;;66.02;31.50;;;;;;;1.12;70.92;100858.02;1741790;79;21730;-39
2021/03/26 04:32:56;;;;;;;57.43;28.55;;;;;;;1.22;69.89;100853.79;1700156;81;21242;-40
2021/03/26 04:35:25;;;;;;;50.73;24.98;;;;;;;1.28;70.02;100862.23;1727416;81;21006;-39
2021/03/26 04:38:11;;;;;;;;;;;;;;;1.51;70.23;100860.55;1752950;79;20939;-39
2021/03/26 04:40:47;;;;;;;24.85;12.50;;;;;;;1.74;69.96;100861.46;1715971;80;20546;-40
2021/03/26 04:43:31;;;;;;;21.48;11.05;;;;;;;2.21;70.77;100860.53;1731156;80;21500;-39
2021/03/26 04:46:25;;;;;;;18.23;9.25;;;;;;;2.72;70.31;100869.36;1725435;80;20981;-41
2021/03/26 04:49:25;;;;;;;23.40;11.22;;;;;;;3.46;67.93;100872.75;1864376;75;22672;-40
2021/03/26 04:52:03;;;;;;;25.15;11.65;;;;;;;3.77;66.40;100882.28;1808683;78;21935;-39
2021/03/26 04:54:58;;;;;;;21.12;11.75;;;;;;;4.24;65.81;100877.88;1859647;75;22403;-40
2021/03/26 04:57:45;;;;;;;24.92;13.30;;;;;;;4.55;64.56;100886.89;1765464;77;21133;-41
2021/03/26 05:00:29;;;;;;;24.63;12.33;;;;;;;4.97;63.81;100887.93;1844734;77;21824;-40
2021/03/26 05:03:04;;;;;;;28.42;14.28;;;;;;;5.19;61.34;100884.21;1788545;78;22283;-41
2021/03/26 05:05:37;;;;;;;26.97;13.08;;;;;;;5.26;60.24;100888.22;1782146;80;20975;-41
2021/03/26 05:08:24;;;;;;;25.50;12.23;;;;;;;5.29;59.64;100886.27;1752152;80;21137;-41
